sensor_id;sensor_type;location;lat;lon;timestamp;pressure;altitude;pressure_sealevel;temperature;humidity
44988;BME280;35735;52.226;21.254;2023-05-07T00:02:46;100904.28;;;5.42;100.00
44988;BME280;35735;52.226;21.254;2023-05-07T00:07:47;100899.81;;;5.43;100.00
44988;BME280;35735;52.226;21.254;2023-05-07T00:12:48;100905.03;;;5.36;100.00
44988;BME280;35735;52.226;21.254;2023-05-07T00:17:48;100904.94;;;5.33;100.00
44988;BME280;35735;52.226;21.254;2023-05-07T00:22:49;100912.09;;;5.34;100.00
44988;BME280;35735;52.226;21.254;2023-05-07T00:27:49;100904.94;;;5.33;100.00
44988;BME280;35735;52.226;21.254;2023-05-07T00:32:50;100906.66;;;5.31;100.00
44988;BME280;35735;52.226;21.254;2023-05-07T00:37:50;100912.03;;;5.31;100.00
44988;BME280;35735;52.226;21.254;2023-05-07T00:42:51;100920.84;;;5.29;100.00
44988;BME280;35735;52.226;21.254;2023-05-07T00:47:54;100926.06;;;5.24;100.00
44988;BME280;35735;52.226;21.254;2023-05-07T00:52:55;100914.16;;;5.14;100.00
44988;BME280;35735;52.226;21.254;2023-05-07T00:57:56;100918.63;;;5.14;100.00
44988;BME280;35735;52.226;21.254;2023-05-07T01:02:57;100936.31;;;5.09;100.00
44988;BME280;35735;52.226;21.254;2023-05-07T01:07:58;100927.34;;;5.07;100.00
44988;BME280;35735;52.226;21.254;2023-05-07T01:13:00;100928.34;;;5.10;100.00
44988;BME280;35735;52.226;21.254;2023-05-07T01:18:01;100924.66;;;5.07;100.00
44988;BME280;35735;52.226;21.254;2023-05-07T01:23:03;100930.97;;;5.09;100.00
44988;BME280;35735;52.226;21.254;2023-05-07T01:28:03;100937.16;;;5.06;100.00
44988;BME280;35735;52.226;21.254;2023-05-07T01:33:09;100938.72;;;4.99;100.00
44988;BME280;35735;52.226;21.254;2023-05-07T01:38:11;100941.41;;;4.99;100.00
44988;BME280;35735;52.226;21.254;2023-05-07T01:43:12;100946.66;;;4.96;100.00
44988;BME280;35735;52.226;21.254;2023-05-07T01:48:14;100948.50;;;4.99;100.00
44988;BME280;35735;52.226;21.254;2023-05-07T01:53:14;100945.03;;;5.01;100.00
44988;BME280;35735;52.226;21.254;2023-05-07T01:58:15;100944.16;;;5.03;100.00
44988;BME280;35735;52.226;21.254;2023-05-07T02:03:15;100943.28;;;5.04;100.00
44988;BME280;35735;52.226;21.254;2023-05-07T02:08:16;100937.94;;;5.04;100.00
44988;BME280;35735;52.226;21.254;2023-05-07T02:13:16;100939.56;;;4.98;100.00
44988;BME280;35735;52.226;21.254;2023-05-07T02:18:17;100936.78;;;4.95;100.00
44988;BME280;35735;52.226;21.254;2023-05-07T02:23:17;100938.56;;;4.95;100.00
44988;BME280;35735;52.226;21.254;2023-05-07T02:28:18;100941.16;;;4.92;100.00
44988;BME280;35735;52.226;21.254;2023-05-07T02:33:18;100958.81;;;4.87;100.00
44988;BME280;35735;52.226;21.254;2023-05-07T02:38:19;100960.50;;;4.83;100.00
44988;BME280;35735;52.226;21.254;2023-05-07T02:43:19;100954.16;;;4.81;100.00
44988;BME280;35735;52.226;21.254;2023-05-07T02:48:20;100955.16;;;4.83;100.00
44988;BME280;35735;52.226;21.254;2023-05-07T02:53:21;100946.19;;;4.82;100.00
44988;BME280;35735;52.226;21.254;2023-05-07T02:58:21;100951.59;;;4.84;100.00
44988;BME280;35735;52.226;21.254;2023-05-07T03:03:22;100946.25;;;4.84;100.00
44988;BME280;35735;52.226;21.254;2023-05-07T03:08:22;100956.94;;;4.84;100.00
44988;BME280;35735;52.226;21.254;2023-05-07T03:13:24;100959.63;;;4.84;100.00
44988;BME280;35735;52.226;21.254;2023-05-07T03:18:25;100968.47;;;4.81;100.00
44988;BME280;35735;52.226;21.254;2023-05-07T03:23:25;100969.37;;;4.82;100.00
44988;BME280;35735;52.226;21.254;2023-05-07T03:28:26;100968.53;;;4.83;100.00
44988;BME280;35735;52.226;21.254;2023-05-07T03:33:26;100985.41;;;4.82;100.00
44988;BME280;35735;52.226;21.254;2023-05-07T03:38:27;100994.50;;;4.87;100.00
44988;BME280;35735;52.226;21.254;2023-05-07T03:43:27;101000.94;;;4.94;100.00
44988;BME280;35735;52.226;21.254;2023-05-07T03:48:28;100992.03;;;4.93;100.00
44988;BME280;35735;52.226;21.254;2023-05-07T03:53:28;101003.69;;;4.95;100.00
44988;BME280;35735;52.226;21.254;2023-05-07T03:58:29;101001.84;;;4.94;100.00
44988;BME280;35735;52.226;21.254;2023-05-07T04:03:29;101003.69;;;4.95;100.00
44988;BME280;35735;52.226;21.254;2023-05-07T04:08:30;101015.44;;;5.00;100.00
44988;BME280;35735;52.226;21.254;2023-05-07T04:13:31;101019.06;;;5.03;100.00
44988;BME280;35735;52.226;21.254;2023-05-07T04:18:31;101025.28;;;5.01;100.00
44988;BME280;35735;52.226;21.254;2023-05-07T04:23:32;101034.47;;;5.10;100.00
44988;BME280;35735;52.226;21.254;2023-05-07T04:28:34;101038.00;;;5.09;100.00
44988;BME280;35735;52.226;21.254;2023-05-07T04:33:35;101037.06;;;5.07;100.00
44988;BME280;35735;52.226;21.254;2023-05-07T04:38:35;101039.72;;;5.07;100.00
44988;BME280;35735;52.226;21.254;2023-05-07T04:43:36;101048.59;;;5.06;100.00
44988;BME280;35735;52.226;21.254;2023-05-07T04:48:36;101049.56;;;5.08;100.00
44988;BME280;35735;52.226;21.254;2023-05-07T04:53:37;101052.53;;;5.17;100.00
44988;BME280;35735;52.226;21.254;2023-05-07T04:58:38;101057.22;;;5.24;100.00
44988;BME280;35735;52.226;21.254;2023-05-07T05:03:38;101069.06;;;5.32;100.00
44988;BME280;35735;52.226;21.254;2023-05-07T05:08:39;101067.28;;;5.31;100.00
44988;BME280;35735;52.226;21.254;2023-05-07T05:13:39;101066.25;;;5.28;100.00
44988;BME280;35735;52.226;21.254;2023-05-07T05:18:40;101077.09;;;5.32;100.00
44988;BME280;35735;52.226;21.254;2023-05-07T05:23:40;101079.00;;;5.35;100.00
44988;BME280;35735;52.226;21.254;2023-05-07T05:28:41;101085.25;;;5.35;100.00
44988;BME280;35735;52.226;21.254;2023-05-07T05:33:41;101095.22;;;5.41;100.00
44988;BME280;35735;52.226;21.254;2023-05-07T05:38:42;101090.16;;;5.50;100.00
44988;BME280;35735;52.226;21.254;2023-05-07T05:43:42;101095.78;;;5.60;100.00
44988;BME280;35735;52.226;21.254;2023-05-07T05:48:43;101111.06;;;5.62;100.00
44988;BME280;35735;52.226;21.254;2023-05-07T05:53:44;101104.09;;;5.67;100.00
44988;BME280;35735;52.226;21.254;2023-05-07T05:58:44;101113.16;;;5.72;100.00
44988;BME280;35735;52.226;21.254;2023-05-07T06:03:45;101120.63;;;5.83;100.00
44988;BME280;35735;52.226;21.254;2023-05-07T06:08:45;101106.47;;;5.87;100.00
44988;BME280;35735;52.226;21.254;2023-05-07T06:13:46;101115.66;;;5.95;100.00
44988;BME280;35735;52.226;21.254;2023-05-07T06:18:46;101117.66;;;6.02;100.00
44988;BME280;35735;52.226;21.254;2023-05-07T06:23:47;101123.31;;;6.11;100.00
44988;BME280;35735;52.226;21.254;2023-05-07T06:28:47;101116.38;;;6.20;100.00
44988;BME280;35735;52.226;21.254;2023-05-07T06:33:49;101129.28;;;6.33;100.00
44988;BME280;35735;52.226;21.254;2023-05-07T06:38:49;101126.25;;;6.53;100.00
44988;BME280;35735;52.226;21.254;2023-05-07T06:43:50;101127.47;;;6.64;100.00
44988;BME280;35735;52.226;21.254;2023-05-07T06:48:50;101135.59;;;6.67;100.00
44988;BME280;35735;52.226;21.254;2023-05-07T06:53:51;101139.13;;;6.66;100.00
44988;BME280;35735;52.226;21.254;2023-05-07T06:58:51;101147.12;;;6.64;100.00
44988;BME280;35735;52.226;21.254;2023-05-07T07:03:52;101140.06;;;6.68;100.00
44988;BME280;35735;52.226;21.254;2023-05-07T07:08:53;101147.97;;;6.62;100.00
44988;BME280;35735;52.226;21.254;2023-05-07T07:13:53;101155.22;;;6.66;100.00
44988;BME280;35735;52.226;21.254;2023-05-07T07:18:54;101161.47;;;6.65;100.00
44988;BME280;35735;52.226;21.254;2023-05-07T07:23:54;101159.75;;;6.67;100.00
44988;BME280;35735;52.226;21.254;2023-05-07T07:28:55;101156.19;;;6.68;100.00
44988;BME280;35735;52.226;21.254;2023-05-07T07:33:55;101171.75;;;6.81;100.00
44988;BME280;35735;52.226;21.254;2023-05-07T07:38:56;101169.28;;;6.89;100.00
44988;BME280;35735;52.226;21.254;2023-05-07T07:43:56;101170.34;;;6.96;100.00
44988;BME280;35735;52.226;21.254;2023-05-07T07:48:57;101189.59;;;7.13;100.00
44988;BME280;35735;52.226;21.254;2023-05-07T07:53:57;101193.41;;;7.22;100.00
44988;BME280;35735;52.226;21.254;2023-05-07T07:58:58;101187.25;;;7.27;100.00
44988;BME280;35735;52.226;21.254;2023-05-07T08:03:59;101187.25;;;7.27;100.00
44988;BME280;35735;52.226;21.254;2023-05-07T08:09:00;101192.69;;;7.30;100.00
44988;BME280;35735;52.226;21.254;2023-05-07T08:14:01;101190.44;;;7.47;100.00
44988;BME280;35735;52.226;21.254;2023-05-07T08:19:01;101198.94;;;7.64;100.00
44988;BME280;35735;52.226;21.254;2023-05-07T08:24:02;101198.44;;;7.82;100.00
44988;BME280;35735;52.226;21.254;2023-05-07T08:29:03;101202.16;;;7.87;100.00
44988;BME280;35735;52.226;21.254;2023-05-07T08:34:03;101208.66;;;7.96;100.00
44988;BME280;35735;52.226;21.254;2023-05-07T08:39:04;101204.38;;;8.05;100.00
44988;BME280;35735;52.226;21.254;2023-05-07T08:44:06;101212.78;;;8.20;100.00
44988;BME280;35735;52.226;21.254;2023-05-07T08:49:12;101210.37;;;8.32;100.00
44988;BME280;35735;52.226;21.254;2023-05-07T08:54:16;101216.59;;;8.31;100.00
44988;BME280;35735;52.226;21.254;2023-05-07T08:59:16;101219.97;;;8.21;100.00
44988;BME280;35735;52.226;21.254;2023-05-07T09:04:17;101225.53;;;8.29;100.00
44988;BME280;35735;52.226;21.254;2023-05-07T09:09:17;101221.50;;;8.48;100.00
44988;BME280;35735;52.226;21.254;2023-05-07T09:14:21;101240.47;;;8.54;100.00
44988;BME280;35735;52.226;21.254;2023-05-07T09:19:23;101226.25;;;8.61;100.00
44988;BME280;35735;52.226;21.254;2023-05-07T09:24:24;101243.50;;;8.71;100.00
44988;BME280;35735;52.226;21.254;2023-05-07T09:29:25;101244.44;;;8.73;100.00
44988;BME280;35735;52.226;21.254;2023-05-07T09:34:25;101241.88;;;8.79;100.00
44988;BME280;35735;52.226;21.254;2023-05-07T09:39:26;101245.66;;;8.89;100.00
44988;BME280;35735;52.226;21.254;2023-05-07T09:44:27;101255.88;;;9.05;100.00
44988;BME280;35735;52.226;21.254;2023-05-07T09:49:29;101263.16;;;9.11;100.00
44988;BME280;35735;52.226;21.254;2023-05-07T09:54:30;101272.19;;;9.15;100.00
44988;BME280;35735;52.226;21.254;2023-05-07T09:59:32;101270.97;;;8.97;99.19
44988;BME280;35735;52.226;21.254;2023-05-07T10:04:33;101260.87;;;8.87;98.91
44988;BME280;35735;52.226;21.254;2023-05-07T10:09:34;101277.06;;;8.88;98.81
44988;BME280;35735;52.226;21.254;2023-05-07T10:14:36;101275.34;;;8.92;98.54
44988;BME280;35735;52.226;21.254;2023-05-07T10:19:37;101283.44;;;8.92;99.01
44988;BME280;35735;52.226;21.254;2023-05-07T10:24:38;101286.28;;;9.01;99.83
44988;BME280;35735;52.226;21.254;2023-05-07T10:29:53;101304.28;;;9.02;97.17
44988;BME280;35735;52.226;21.254;2023-05-07T10:35:16;101295.81;;;8.84;98.19
44988;BME280;35735;52.226;21.254;2023-05-07T10:40:20;101301.37;;;8.93;98.73
44988;BME280;35735;52.226;21.254;2023-05-07T10:45:21;101308.50;;;8.89;98.39
44988;BME280;35735;52.226;21.254;2023-05-07T10:50:22;101312.91;;;8.86;98.00
44988;BME280;35735;52.226;21.254;2023-05-07T10:55:23;101320.88;;;8.81;97.79
44988;BME280;35735;52.226;21.254;2023-05-07T11:05:25;101300.84;;;9.11;98.31
44988;BME280;35735;52.226;21.254;2023-05-07T11:10:55;101308.22;;;9.20;98.49
44988;BME280;35735;52.226;21.254;2023-05-07T11:15:56;101306.50;;;9.25;96.58
44988;BME280;35735;52.226;21.254;2023-05-07T11:20:58;101315.44;;;9.21;96.40
44988;BME280;35735;52.226;21.254;2023-05-07T11:26:03;101333.66;;;9.34;96.13
44988;BME280;35735;52.226;21.254;2023-05-07T11:31:05;101325.78;;;9.46;96.27
44988;BME280;35735;52.226;21.254;2023-05-07T11:36:08;101319.69;;;9.57;95.29
44988;BME280;35735;52.226;21.254;2023-05-07T11:41:09;101315.25;;;9.60;95.46
44988;BME280;35735;52.226;21.254;2023-05-07T11:46:10;101323.28;;;9.56;94.85
44988;BME280;35735;52.226;21.254;2023-05-07T11:51:11;101316.88;;;9.49;95.19
44988;BME280;35735;52.226;21.254;2023-05-07T11:56:14;101326.53;;;9.38;94.64
44988;BME280;35735;52.226;21.254;2023-05-07T12:01:15;101335.50;;;9.38;95.29
44988;BME280;35735;52.226;21.254;2023-05-07T12:06:16;101342.19;;;9.57;95.77
44988;BME280;35735;52.226;21.254;2023-05-07T12:11:23;101332.34;;;9.61;94.72
44988;BME280;35735;52.226;21.254;2023-05-07T12:16:24;101340.28;;;9.53;92.87
44988;BME280;35735;52.226;21.254;2023-05-07T12:21:25;101339.53;;;9.62;94.10
44988;BME280;35735;52.226;21.254;2023-05-07T12:26:26;101337.12;;;9.76;93.35
44988;BME280;35735;52.226;21.254;2023-05-07T12:31:27;101341.63;;;9.78;93.02
44988;BME280;35735;52.226;21.254;2023-05-07T12:36:36;101339.06;;;9.85;92.55
44988;BME280;35735;52.226;21.254;2023-05-07T12:41:53;101355.66;;;10.08;91.13
44988;BME280;35735;52.226;21.254;2023-05-07T12:46:54;101339.53;;;10.12;90.10
44988;BME280;35735;52.226;21.254;2023-05-07T12:51:55;101339.50;;;10.09;90.96
44988;BME280;35735;52.226;21.254;2023-05-07T12:57:02;101348.47;;;10.10;91.37
44988;BME280;35735;52.226;21.254;2023-05-07T13:02:04;101348.53;;;10.13;91.33
44988;BME280;35735;52.226;21.254;2023-05-07T13:07:05;101343.94;;;10.07;91.22
44988;BME280;35735;52.226;21.254;2023-05-07T13:12:05;101354.66;;;10.02;91.21
44988;BME280;35735;52.226;21.254;2023-05-07T13:17:06;101349.06;;;9.92;90.90
44988;BME280;35735;52.226;21.254;2023-05-07T13:22:07;101352.69;;;9.94;91.87
44988;BME280;35735;52.226;21.254;2023-05-07T13:27:07;101356.59;;;10.11;90.39
44988;BME280;35735;52.226;21.254;2023-05-07T13:32:08;101348.59;;;10.16;89.44
44988;BME280;35735;52.226;21.254;2023-05-07T13:37:08;101348.63;;;10.17;90.52
44988;BME280;35735;52.226;21.254;2023-05-07T13:42:09;101344.03;;;10.13;89.71
44988;BME280;35735;52.226;21.254;2023-05-07T13:47:10;101353.22;;;10.25;90.39
44988;BME280;35735;52.226;21.254;2023-05-07T13:52:10;101333.62;;;10.35;89.50
44988;BME280;35735;52.226;21.254;2023-05-07T13:57:11;101334.44;;;10.31;88.08
44988;BME280;35735;52.226;21.254;2023-05-07T14:02:11;101327.16;;;10.27;88.88
44988;BME280;35735;52.226;21.254;2023-05-07T14:07:12;101335.41;;;10.33;89.60
44988;BME280;35735;52.226;21.254;2023-05-07T14:12:13;101344.41;;;10.35;90.10
44988;BME280;35735;52.226;21.254;2023-05-07T14:17:13;101355.44;;;10.50;89.48
44988;BME280;35735;52.226;21.254;2023-05-07T14:22:14;101342.91;;;10.54;87.93
44988;BME280;35735;52.226;21.254;2023-05-07T14:27:14;101350.28;;;10.66;87.88
44988;BME280;35735;52.226;21.254;2023-05-07T14:32:15;101345.94;;;10.77;88.11
44988;BME280;35735;52.226;21.254;2023-05-07T14:37:16;101345.16;;;10.84;87.50
44988;BME280;35735;52.226;21.254;2023-05-07T14:42:17;101349.72;;;10.90;87.16
44988;BME280;35735;52.226;21.254;2023-05-07T14:47:17;101350.72;;;10.97;85.88
44988;BME280;35735;52.226;21.254;2023-05-07T14:52:18;101358.81;;;10.97;86.08
44988;BME280;35735;52.226;21.254;2023-05-07T14:57:19;101361.50;;;10.97;85.64
44988;BME280;35735;52.226;21.254;2023-05-07T15:02:19;101350.66;;;10.93;84.78
44988;BME280;35735;52.226;21.254;2023-05-07T15:07:20;101351.66;;;11.00;85.14
44988;BME280;35735;52.226;21.254;2023-05-07T15:12:20;101356.97;;;10.94;84.26
44988;BME280;35735;52.226;21.254;2023-05-07T15:17:21;101353.28;;;10.89;84.06
44988;BME280;35735;52.226;21.254;2023-05-07T15:22:21;101352.41;;;10.88;83.98
44988;BME280;35735;52.226;21.254;2023-05-07T15:27:22;101348.81;;;10.89;83.91
44988;BME280;35735;52.226;21.254;2023-05-07T15:32:23;101355.16;;;10.93;84.03
44988;BME280;35735;52.226;21.254;2023-05-07T15:37:23;101357.88;;;10.94;83.88
44988;BME280;35735;52.226;21.254;2023-05-07T15:42:24;101350.72;;;10.97;84.34
44988;BME280;35735;52.226;21.254;2023-05-07T15:47:24;101353.47;;;11.00;83.97
44988;BME280;35735;52.226;21.254;2023-05-07T15:52:25;101356.16;;;11.00;83.92
44988;BME280;35735;52.226;21.254;2023-05-07T15:57:26;101358.87;;;11.01;83.85
44988;BME280;35735;52.226;21.254;2023-05-07T16:02:26;101356.09;;;10.97;83.39
44988;BME280;35735;52.226;21.254;2023-05-07T16:07:27;101366.88;;;10.93;83.37
44988;BME280;35735;52.226;21.254;2023-05-07T16:12:27;101364.16;;;10.92;83.00
44988;BME280;35735;52.226;21.254;2023-05-07T16:17:28;101359.63;;;10.89;82.68
44988;BME280;35735;52.226;21.254;2023-05-07T16:22:29;101372.19;;;10.87;82.99
44988;BME280;35735;52.226;21.254;2023-05-07T16:27:29;101361.41;;;10.90;82.96
44988;BME280;35735;52.226;21.254;2023-05-07T16:32:30;101364.16;;;10.92;83.37
44988;BME280;35735;52.226;21.254;2023-05-07T16:37:31;101357.03;;;10.99;83.76
44988;BME280;35735;52.226;21.254;2023-05-07T16:42:33;101361.56;;;11.00;83.39
44988;BME280;35735;52.226;21.254;2023-05-07T16:47:34;101355.06;;;10.87;82.69
44988;BME280;35735;52.226;21.254;2023-05-07T16:52:35;101364.88;;;10.79;82.46
44988;BME280;35735;52.226;21.254;2023-05-07T16:57:35;101370.19;;;10.74;82.96
44988;BME280;35735;52.226;21.254;2023-05-07T17:02:36;101373.84;;;10.76;83.14
44988;BME280;35735;52.226;21.254;2023-05-07T17:07:36;101372.00;;;10.75;83.26
44988;BME280;35735;52.226;21.254;2023-05-07T17:12:37;101375.53;;;10.68;83.33
44988;BME280;35735;52.226;21.254;2023-05-07T17:17:39;101377.22;;;10.61;83.25
44988;BME280;35735;52.226;21.254;2023-05-07T17:22:39;101378.12;;;10.62;83.77
44988;BME280;35735;52.226;21.254;2023-05-07T17:27:40;101385.19;;;10.53;83.79
44988;BME280;35735;52.226;21.254;2023-05-07T17:32:41;101387.03;;;10.56;84.16
44988;BME280;35735;52.226;21.254;2023-05-07T17:37:41;101395.09;;;10.53;85.00
44988;BME280;35735;52.226;21.254;2023-05-07T17:42:42;101396.00;;;10.55;85.39
44988;BME280;35735;52.226;21.254;2023-05-07T17:47:42;101402.25;;;10.49;86.03
44988;BME280;35735;52.226;21.254;2023-05-07T17:52:43;101412.97;;;10.46;86.42
44988;BME280;35735;52.226;21.254;2023-05-07T17:57:43;101424.50;;;10.36;87.08
44988;BME280;35735;52.226;21.254;2023-05-07T18:02:44;101421.62;;;10.28;87.76
44988;BME280;35735;52.226;21.254;2023-05-07T18:07:45;101419.69;;;10.19;88.36
44988;BME280;35735;52.226;21.254;2023-05-07T18:12:45;101429.38;;;10.08;89.22
44988;BME280;35735;52.226;21.254;2023-05-07T18:17:46;101434.41;;;9.88;90.07
44988;BME280;35735;52.226;21.254;2023-05-07T18:22:46;101439.38;;;9.67;90.84
44988;BME280;35735;52.226;21.254;2023-05-07T18:27:47;101450.75;;;9.52;91.21
44988;BME280;35735;52.226;21.254;2023-05-07T18:32:48;101455.81;;;9.36;92.11
44988;BME280;35735;52.226;21.254;2023-05-07T18:37:48;101456.31;;;9.18;92.81
44988;BME280;35735;52.226;21.254;2023-05-07T18:42:49;101464.94;;;9.02;93.42
44988;BME280;35735;52.226;21.254;2023-05-07T18:47:49;101473.56;;;8.87;93.86
44988;BME280;35735;52.226;21.254;2023-05-07T18:52:50;101479.59;;;8.77;94.09
44988;BME280;35735;52.226;21.254;2023-05-07T18:57:51;101479.97;;;8.54;94.87
44988;BME280;35735;52.226;21.254;2023-05-07T19:02:51;101483.09;;;8.38;95.27
44988;BME280;35735;52.226;21.254;2023-05-07T19:07:52;101490.50;;;8.13;96.04
44988;BME280;35735;52.226;21.254;2023-05-07T19:12:52;101499.00;;;7.96;96.46
44988;BME280;35735;52.226;21.254;2023-05-07T19:17:53;101501.31;;;7.83;96.78
44988;BME280;35735;52.226;21.254;2023-05-07T19:22:53;101506.81;;;7.55;97.42
44988;BME280;35735;52.226;21.254;2023-05-07T19:27:54;101508.47;;;7.50;97.91
44988;BME280;35735;52.226;21.254;2023-05-07T19:32:54;101512.53;;;7.37;98.08
44988;BME280;35735;52.226;21.254;2023-05-07T19:37:55;101520.63;;;7.09;98.51
44988;BME280;35735;52.226;21.254;2023-05-07T19:42:56;101520.81;;;6.87;99.48
44988;BME280;35735;52.226;21.254;2023-05-07T19:47:56;101530.09;;;6.70;100.00
44988;BME280;35735;52.226;21.254;2023-05-07T19:52:57;101535.09;;;6.59;100.00
44988;BME280;35735;52.226;21.254;2023-05-07T19:57:57;101550.88;;;6.50;100.00
44988;BME280;35735;52.226;21.254;2023-05-07T20:02:58;101555.91;;;6.41;100.00
44988;BME280;35735;52.226;21.254;2023-05-07T20:07:58;101558.06;;;6.25;100.00
44988;BME280;35735;52.226;21.254;2023-05-07T20:12:59;101554.31;;;6.20;100.00
44988;BME280;35735;52.226;21.254;2023-05-07T20:17:59;101564.63;;;6.09;100.00
44988;BME280;35735;52.226;21.254;2023-05-07T20:23:00;101562.47;;;5.99;100.00
44988;BME280;35735;52.226;21.254;2023-05-07T20:28:01;101568.38;;;5.90;100.00
44988;BME280;35735;52.226;21.254;2023-05-07T20:33:01;101573.28;;;5.78;100.00
44988;BME280;35735;52.226;21.254;2023-05-07T20:38:02;101577.75;;;5.55;100.00
44988;BME280;35735;52.226;21.254;2023-05-07T20:43:04;101582.72;;;5.46;100.00
44988;BME280;35735;52.226;21.254;2023-05-07T20:48:05;101572.50;;;5.35;100.00
44988;BME280;35735;52.226;21.254;2023-05-07T20:53:05;101582.75;;;5.23;100.00
44988;BME280;35735;52.226;21.254;2023-05-07T20:58:06;101590.03;;;5.05;100.00
44988;BME280;35735;52.226;21.254;2023-05-07T21:03:07;101592.44;;;4.98;100.00
44988;BME280;35735;52.226;21.254;2023-05-07T21:08:07;101590.09;;;4.85;100.00
44988;BME280;35735;52.226;21.254;2023-05-07T21:13:08;101597.50;;;4.70;100.00
44988;BME280;35735;52.226;21.254;2023-05-07T21:18:09;101606.28;;;4.67;100.00
44988;BME280;35735;52.226;21.254;2023-05-07T21:23:10;101612.53;;;4.68;100.00
44988;BME280;35735;52.226;21.254;2023-05-07T21:28:10;101619.44;;;4.62;100.00
44988;BME280;35735;52.226;21.254;2023-05-07T21:33:11;101629.31;;;4.63;100.00
44988;BME280;35735;52.226;21.254;2023-05-07T21:38:12;101634.31;;;4.56;100.00
44988;BME280;35735;52.226;21.254;2023-05-07T21:43:12;101634.06;;;4.50;100.00
44988;BME280;35735;52.226;21.254;2023-05-07T21:48:13;101643.16;;;4.34;100.00
44988;BME280;35735;52.226;21.254;2023-05-07T21:53:14;101646.13;;;4.20;100.00
44988;BME280;35735;52.226;21.254;2023-05-07T21:58:14;101650.31;;;3.96;100.00
44988;BME280;35735;52.226;21.254;2023-05-07T22:03:15;101654.53;;;3.90;100.00
44988;BME280;35735;52.226;21.254;2023-05-07T22:08:16;101661.72;;;3.92;100.00
44988;BME280;35735;52.226;21.254;2023-05-07T22:13:16;101654.97;;;3.80;100.00
44988;BME280;35735;52.226;21.254;2023-05-07T22:18:17;101661.00;;;3.76;100.00
44988;BME280;35735;52.226;21.254;2023-05-07T22:23:17;101655.22;;;3.67;100.00
44988;BME280;35735;52.226;21.254;2023-05-07T22:28:18;101653.09;;;3.60;100.00
44988;BME280;35735;52.226;21.254;2023-05-07T22:33:18;101663.87;;;3.43;100.00
44988;BME280;35735;52.226;21.254;2023-05-07T22:38:19;101661.75;;;3.36;100.00
44988;BME280;35735;52.226;21.254;2023-05-07T22:43:19;101662.97;;;3.43;100.00
44988;BME280;35735;52.226;21.254;2023-05-07T22:48:20;101659.28;;;3.41;100.00
44988;BME280;35735;52.226;21.254;2023-05-07T22:53:21;101657.09;;;3.32;100.00
44988;BME280;35735;52.226;21.254;2023-05-07T22:58:21;101659.53;;;3.27;100.00
44988;BME280;35735;52.226;21.254;2023-05-07T23:03:22;101666.78;;;3.12;100.00
44988;BME280;35735;52.226;21.254;2023-05-07T23:08:22;101668.16;;;3.04;100.00
44988;BME280;35735;52.226;21.254;2023-05-07T23:13:23;101662.28;;;2.93;100.00
44988;BME280;35735;52.226;21.254;2023-05-07T23:18:23;101667.37;;;2.88;100.00
44988;BME280;35735;52.226;21.254;2023-05-07T23:23:24;101668.97;;;2.85;100.00
44988;BME280;35735;52.226;21.254;2023-05-07T23:28:24;101664.66;;;2.70;100.00
44988;BME280;35735;52.226;21.254;2023-05-07T23:33:25;101670.81;;;2.51;100.00
44988;BME280;35735;52.226;21.254;2023-05-07T23:38:25;101667.06;;;2.48;100.00
44988;BME280;35735;52.226;21.254;2023-05-07T23:43:26;101661.53;;;2.61;100.00
44988;BME280;35735;52.226;21.254;2023-05-07T23:48:26;101656.13;;;2.59;100.00
44988;BME280;35735;52.226;21.254;2023-05-07T23:53:27;101662.62;;;2.48;100.00
44988;BME280;35735;52.226;21.254;2023-05-07T23:58:28;101665.91;;;2.43;100.00
